sensor_id;sensor_type;location;lat;lon;timestamp;temperature;humidity
81216;DHT22;70688;52.492;13.420;2023-09-12T00:01:05;22.60;53.40
81216;DHT22;70688;52.492;13.420;2023-09-12T00:03:31;22.60;53.30
81216;DHT22;70688;52.492;13.420;2023-09-12T00:05:57;22.70;53.20
81216;DHT22;70688;52.492;13.420;2023-09-12T00:08:23;22.70;52.80
81216;DHT22;70688;52.492;13.420;2023-09-12T00:13:26;22.30;54.00
81216;DHT22;70688;52.492;13.420;2023-09-12T00:15:51;22.30;54.20
81216;DHT22;70688;52.492;13.420;2023-09-12T00:18:17;22.40;53.30
81216;DHT22;70688;52.492;13.420;2023-09-12T00:20:42;22.40;53.30
81216;DHT22;70688;52.492;13.420;2023-09-12T00:23:08;22.50;53.10
81216;DHT22;70688;52.492;13.420;2023-09-12T00:25:33;22.40;53.20
81216;DHT22;70688;52.492;13.420;2023-09-12T00:27:59;22.30;53.40
81216;DHT22;70688;52.492;13.420;2023-09-12T00:30:24;22.30;53.00
81216;DHT22;70688;52.492;13.420;2023-09-12T00:32:50;22.30;52.60
81216;DHT22;70688;52.492;13.420;2023-09-12T00:35:15;22.40;52.30
81216;DHT22;70688;52.492;13.420;2023-09-12T00:37:41;22.40;52.10
81216;DHT22;70688;52.492;13.420;2023-09-12T00:40:06;22.30;51.60
81216;DHT22;70688;52.492;13.420;2023-09-12T00:42:32;22.40;51.30
81216;DHT22;70688;52.492;13.420;2023-09-12T00:44:58;22.30;51.70
81216;DHT22;70688;52.492;13.420;2023-09-12T00:47:23;22.10;52.30
81216;DHT22;70688;52.492;13.420;2023-09-12T00:49:49;22.20;51.90
81216;DHT22;70688;52.492;13.420;2023-09-12T00:52:15;22.20;51.60
81216;DHT22;70688;52.492;13.420;2023-09-12T00:54:41;22.10;52.40
81216;DHT22;70688;52.492;13.420;2023-09-12T00:57:07;22.00;52.80
81216;DHT22;70688;52.492;13.420;2023-09-12T00:59:32;22.00;52.80
81216;DHT22;70688;52.492;13.420;2023-09-12T01:01:58;22.10;52.20
81216;DHT22;70688;52.492;13.420;2023-09-12T01:04:24;22.20;51.50
81216;DHT22;70688;52.492;13.420;2023-09-12T01:06:50;22.20;51.90
81216;DHT22;70688;52.492;13.420;2023-09-12T01:09:16;22.20;51.80
81216;DHT22;70688;52.492;13.420;2023-09-12T01:11:41;22.10;52.00
81216;DHT22;70688;52.492;13.420;2023-09-12T01:14:07;21.90;52.70
81216;DHT22;70688;52.492;13.420;2023-09-12T01:16:32;21.80;53.30
81216;DHT22;70688;52.492;13.420;2023-09-12T01:18:58;21.70;53.50
81216;DHT22;70688;52.492;13.420;2023-09-12T01:26:41;21.90;52.60
81216;DHT22;70688;52.492;13.420;2023-09-12T01:29:08;21.90;52.70
81216;DHT22;70688;52.492;13.420;2023-09-12T01:31:34;21.80;52.80
81216;DHT22;70688;52.492;13.420;2023-09-12T01:34:12;21.90;52.80
81216;DHT22;70688;52.492;13.420;2023-09-12T01:36:38;21.90;52.70
81216;DHT22;70688;52.492;13.420;2023-09-12T01:39:03;21.90;52.50
81216;DHT22;70688;52.492;13.420;2023-09-12T01:41:29;21.90;52.50
81216;DHT22;70688;52.492;13.420;2023-09-12T01:43:56;21.80;53.10
81216;DHT22;70688;52.492;13.420;2023-09-12T01:46:22;21.70;53.40
81216;DHT22;70688;52.492;13.420;2023-09-12T01:48:49;21.60;53.60
81216;DHT22;70688;52.492;13.420;2023-09-12T01:51:16;21.80;53.40
81216;DHT22;70688;52.492;13.420;2023-09-12T01:53:42;21.80;53.10
81216;DHT22;70688;52.492;13.420;2023-09-12T01:56:10;21.60;54.70
81216;DHT22;70688;52.492;13.420;2023-09-12T01:58:36;21.40;54.40
81216;DHT22;70688;52.492;13.420;2023-09-12T02:01:02;21.20;54.80
81216;DHT22;70688;52.492;13.420;2023-09-12T02:03:27;21.20;55.30
81216;DHT22;70688;52.492;13.420;2023-09-12T02:05:53;21.20;55.30
81216;DHT22;70688;52.492;13.420;2023-09-12T02:08:18;21.20;55.50
81216;DHT22;70688;52.492;13.420;2023-09-12T02:10:44;21.40;55.00
81216;DHT22;70688;52.492;13.420;2023-09-12T02:13:09;21.30;54.80
81216;DHT22;70688;52.492;13.420;2023-09-12T02:15:35;21.20;55.10
81216;DHT22;70688;52.492;13.420;2023-09-12T02:18:00;21.10;55.00
81216;DHT22;70688;52.492;13.420;2023-09-12T02:20:26;21.20;55.00
81216;DHT22;70688;52.492;13.420;2023-09-12T02:22:51;21.40;54.40
81216;DHT22;70688;52.492;13.420;2023-09-12T02:25:17;21.50;54.10
81216;DHT22;70688;52.492;13.420;2023-09-12T02:27:42;21.60;53.50
81216;DHT22;70688;52.492;13.420;2023-09-12T02:30:08;21.80;52.90
81216;DHT22;70688;52.492;13.420;2023-09-12T02:32:34;21.80;52.50
81216;DHT22;70688;52.492;13.420;2023-09-12T02:34:59;21.40;53.30
81216;DHT22;70688;52.492;13.420;2023-09-12T02:37:25;21.20;54.30
81216;DHT22;70688;52.492;13.420;2023-09-12T02:39:51;21.00;56.60
81216;DHT22;70688;52.492;13.420;2023-09-12T02:42:16;20.90;56.20
81216;DHT22;70688;52.492;13.420;2023-09-12T02:44:42;20.90;56.20
81216;DHT22;70688;52.492;13.420;2023-09-12T02:47:07;20.80;56.50
81216;DHT22;70688;52.492;13.420;2023-09-12T02:49:32;20.80;56.70
81216;DHT22;70688;52.492;13.420;2023-09-12T02:51:58;20.70;56.80
81216;DHT22;70688;52.492;13.420;2023-09-12T02:54:23;20.60;57.10
81216;DHT22;70688;52.492;13.420;2023-09-12T02:56:49;20.60;57.40
81216;DHT22;70688;52.492;13.420;2023-09-12T02:59:14;20.50;57.70
81216;DHT22;70688;52.492;13.420;2023-09-12T03:01:40;20.50;57.60
81216;DHT22;70688;52.492;13.420;2023-09-12T03:04:06;20.60;57.80
81216;DHT22;70688;52.492;13.420;2023-09-12T03:06:32;20.70;57.80
81216;DHT22;70688;52.492;13.420;2023-09-12T03:08:58;20.90;57.90
81216;DHT22;70688;52.492;13.420;2023-09-12T03:11:25;20.90;56.90
81216;DHT22;70688;52.492;13.420;2023-09-12T03:13:51;20.90;57.00
81216;DHT22;70688;52.492;13.420;2023-09-12T03:16:16;21.00;56.40
81216;DHT22;70688;52.492;13.420;2023-09-12T03:18:42;20.80;57.10
81216;DHT22;70688;52.492;13.420;2023-09-12T03:21:07;20.80;57.50
81216;DHT22;70688;52.492;13.420;2023-09-12T03:23:33;20.70;57.90
81216;DHT22;70688;52.492;13.420;2023-09-12T03:26:05;20.70;58.10
81216;DHT22;70688;52.492;13.420;2023-09-12T03:28:30;20.50;58.40
81216;DHT22;70688;52.492;13.420;2023-09-12T03:33:34;20.60;58.20
81216;DHT22;70688;52.492;13.420;2023-09-12T03:36:00;20.50;58.50
81216;DHT22;70688;52.492;13.420;2023-09-12T03:38:25;20.50;58.50
81216;DHT22;70688;52.492;13.420;2023-09-12T03:40:51;20.60;58.00
81216;DHT22;70688;52.492;13.420;2023-09-12T03:43:16;20.60;58.00
81216;DHT22;70688;52.492;13.420;2023-09-12T03:45:41;20.60;58.10
81216;DHT22;70688;52.492;13.420;2023-09-12T03:48:07;20.60;58.10
81216;DHT22;70688;52.492;13.420;2023-09-12T03:50:32;20.70;58.00
81216;DHT22;70688;52.492;13.420;2023-09-12T03:52:58;20.60;58.20
81216;DHT22;70688;52.492;13.420;2023-09-12T03:55:23;20.60;58.40
81216;DHT22;70688;52.492;13.420;2023-09-12T03:57:49;20.50;59.20
81216;DHT22;70688;52.492;13.420;2023-09-12T04:00:14;20.60;60.40
81216;DHT22;70688;52.492;13.420;2023-09-12T04:02:40;20.80;58.80
81216;DHT22;70688;52.492;13.420;2023-09-12T04:05:06;21.00;58.30
81216;DHT22;70688;52.492;13.420;2023-09-12T04:07:31;21.10;57.30
81216;DHT22;70688;52.492;13.420;2023-09-12T04:09:57;21.00;57.00
81216;DHT22;70688;52.492;13.420;2023-09-12T04:12:22;20.70;58.80
81216;DHT22;70688;52.492;13.420;2023-09-12T04:14:52;20.70;58.60
81216;DHT22;70688;52.492;13.420;2023-09-12T04:17:17;20.60;58.70
81216;DHT22;70688;52.492;13.420;2023-09-12T04:19:43;20.40;59.00
81216;DHT22;70688;52.492;13.420;2023-09-12T04:22:08;20.20;59.10
81216;DHT22;70688;52.492;13.420;2023-09-12T04:24:34;20.10;59.20
81216;DHT22;70688;52.492;13.420;2023-09-12T04:26:59;20.00;59.60
81216;DHT22;70688;52.492;13.420;2023-09-12T04:29:25;19.90;59.90
81216;DHT22;70688;52.492;13.420;2023-09-12T04:31:50;19.90;60.80
81216;DHT22;70688;52.492;13.420;2023-09-12T04:34:17;19.90;60.60
81216;DHT22;70688;52.492;13.420;2023-09-12T04:36:43;19.90;60.10
81216;DHT22;70688;52.492;13.420;2023-09-12T04:39:09;19.90;60.40
81216;DHT22;70688;52.492;13.420;2023-09-12T04:41:34;20.10;59.70
81216;DHT22;70688;52.492;13.420;2023-09-12T04:44:00;20.20;59.30
81216;DHT22;70688;52.492;13.420;2023-09-12T04:46:27;20.50;58.90
81216;DHT22;70688;52.492;13.420;2023-09-12T04:48:53;20.80;58.30
81216;DHT22;70688;52.492;13.420;2023-09-12T04:51:18;20.90;57.90
81216;DHT22;70688;52.492;13.420;2023-09-12T04:53:44;20.80;57.90
81216;DHT22;70688;52.492;13.420;2023-09-12T04:56:09;20.50;58.50
81216;DHT22;70688;52.492;13.420;2023-09-12T04:58:35;20.50;58.60
81216;DHT22;70688;52.492;13.420;2023-09-12T05:01:01;20.60;59.00
81216;DHT22;70688;52.492;13.420;2023-09-12T05:03:27;20.80;58.40
81216;DHT22;70688;52.492;13.420;2023-09-12T05:05:53;21.10;57.50
81216;DHT22;70688;52.492;13.420;2023-09-12T05:08:18;21.20;57.00
81216;DHT22;70688;52.492;13.420;2023-09-12T05:10:44;21.30;56.90
81216;DHT22;70688;52.492;13.420;2023-09-12T05:13:10;21.50;55.70
81216;DHT22;70688;52.492;13.420;2023-09-12T05:15:36;21.60;54.60
81216;DHT22;70688;52.492;13.420;2023-09-12T05:18:05;21.70;54.40
81216;DHT22;70688;52.492;13.420;2023-09-12T05:20:31;21.50;54.70
81216;DHT22;70688;52.492;13.420;2023-09-12T05:22:57;21.40;55.00
81216;DHT22;70688;52.492;13.420;2023-09-12T05:25:22;21.60;54.20
81216;DHT22;70688;52.492;13.420;2023-09-12T05:27:48;22.00;53.30
81216;DHT22;70688;52.492;13.420;2023-09-12T05:30:13;22.40;52.10
81216;DHT22;70688;52.492;13.420;2023-09-12T05:32:40;22.60;50.90
81216;DHT22;70688;52.492;13.420;2023-09-12T05:35:06;22.60;50.40
81216;DHT22;70688;52.492;13.420;2023-09-12T05:37:31;22.80;49.90
81216;DHT22;70688;52.492;13.420;2023-09-12T05:39:57;23.10;47.70
81216;DHT22;70688;52.492;13.420;2023-09-12T05:42:22;23.30;47.50
81216;DHT22;70688;52.492;13.420;2023-09-12T05:44:48;23.50;47.00
81216;DHT22;70688;52.492;13.420;2023-09-12T05:47:14;23.70;46.30
81216;DHT22;70688;52.492;13.420;2023-09-12T05:49:39;23.80;45.70
81216;DHT22;70688;52.492;13.420;2023-09-12T05:52:05;23.90;45.30
81216;DHT22;70688;52.492;13.420;2023-09-12T05:54:31;24.00;45.70
81216;DHT22;70688;52.492;13.420;2023-09-12T05:56:56;24.10;45.60
81216;DHT22;70688;52.492;13.420;2023-09-12T05:59:22;24.10;45.60
81216;DHT22;70688;52.492;13.420;2023-09-12T06:01:47;24.10;45.60
81216;DHT22;70688;52.492;13.420;2023-09-12T06:04:14;24.10;45.30
81216;DHT22;70688;52.492;13.420;2023-09-12T06:06:39;24.40;44.60
81216;DHT22;70688;52.492;13.420;2023-09-12T06:09:05;25.20;42.60
81216;DHT22;70688;52.492;13.420;2023-09-12T06:11:31;26.40;40.20
81216;DHT22;70688;52.492;13.420;2023-09-12T06:13:56;27.40;37.70
81216;DHT22;70688;52.492;13.420;2023-09-12T06:16:22;28.00;36.10
81216;DHT22;70688;52.492;13.420;2023-09-12T06:18:48;28.30;35.50
81216;DHT22;70688;52.492;13.420;2023-09-12T06:21:16;28.50;34.90
81216;DHT22;70688;52.492;13.420;2023-09-12T06:23:42;28.60;34.60
81216;DHT22;70688;52.492;13.420;2023-09-12T06:26:07;28.80;34.20
81216;DHT22;70688;52.492;13.420;2023-09-12T06:28:33;28.50;34.60
81216;DHT22;70688;52.492;13.420;2023-09-12T06:30:58;28.20;35.50
81216;DHT22;70688;52.492;13.420;2023-09-12T06:33:24;27.90;36.00
81216;DHT22;70688;52.492;13.420;2023-09-12T06:35:50;27.50;36.60
81216;DHT22;70688;52.492;13.420;2023-09-12T06:38:22;26.30;38.60
81216;DHT22;70688;52.492;13.420;2023-09-12T06:40:47;26.30;39.60
81216;DHT22;70688;52.492;13.420;2023-09-12T06:43:13;27.40;37.70
81216;DHT22;70688;52.492;13.420;2023-09-12T06:45:42;28.50;35.60
81216;DHT22;70688;52.492;13.420;2023-09-12T06:48:07;29.20;33.90
81216;DHT22;70688;52.492;13.420;2023-09-12T06:50:33;30.20;32.30
81216;DHT22;70688;52.492;13.420;2023-09-12T06:52:59;31.50;30.40
81216;DHT22;70688;52.492;13.420;2023-09-12T06:55:24;33.10;28.20
81216;DHT22;70688;52.492;13.420;2023-09-12T06:57:50;34.30;26.60
81216;DHT22;70688;52.492;13.420;2023-09-12T07:00:15;35.40;25.10
81216;DHT22;70688;52.492;13.420;2023-09-12T07:02:42;36.20;24.10
81216;DHT22;70688;52.492;13.420;2023-09-12T07:05:07;37.00;23.40
81216;DHT22;70688;52.492;13.420;2023-09-12T07:07:33;37.60;22.60
81216;DHT22;70688;52.492;13.420;2023-09-12T07:09:58;38.10;22.10
81216;DHT22;70688;52.492;13.420;2023-09-12T07:12:25;38.40;21.70
81216;DHT22;70688;52.492;13.420;2023-09-12T07:14:51;38.50;21.20
81216;DHT22;70688;52.492;13.420;2023-09-12T07:17:17;39.10;21.00
81216;DHT22;70688;52.492;13.420;2023-09-12T07:19:43;39.70;20.20
81216;DHT22;70688;52.492;13.420;2023-09-12T07:22:08;39.90;19.80
81216;DHT22;70688;52.492;13.420;2023-09-12T07:24:34;40.00;19.40
81216;DHT22;70688;52.492;13.420;2023-09-12T07:26:59;39.90;19.30
81216;DHT22;70688;52.492;13.420;2023-09-12T07:29:25;40.50;19.10
81216;DHT22;70688;52.492;13.420;2023-09-12T07:31:54;41.00;18.70
81216;DHT22;70688;52.492;13.420;2023-09-12T07:34:20;41.00;18.30
81216;DHT22;70688;52.492;13.420;2023-09-12T07:36:45;41.20;18.10
81216;DHT22;70688;52.492;13.420;2023-09-12T07:39:11;41.70;17.60
81216;DHT22;70688;52.492;13.420;2023-09-12T07:41:37;42.00;17.40
81216;DHT22;70688;52.492;13.420;2023-09-12T07:44:02;42.20;16.90
81216;DHT22;70688;52.492;13.420;2023-09-12T07:46:30;42.50;17.00
81216;DHT22;70688;52.492;13.420;2023-09-12T07:48:55;42.70;16.70
81216;DHT22;70688;52.492;13.420;2023-09-12T07:51:21;42.90;16.50
81216;DHT22;70688;52.492;13.420;2023-09-12T07:53:48;42.90;16.30
81216;DHT22;70688;52.492;13.420;2023-09-12T07:56:13;43.00;16.40
81216;DHT22;70688;52.492;13.420;2023-09-12T07:58:39;43.10;16.30
81216;DHT22;70688;52.492;13.420;2023-09-12T08:01:08;43.30;16.10
81216;DHT22;70688;52.492;13.420;2023-09-12T08:03:34;43.20;15.90
81216;DHT22;70688;52.492;13.420;2023-09-12T08:06:00;43.00;16.10
81216;DHT22;70688;52.492;13.420;2023-09-12T08:08:26;43.40;16.00
81216;DHT22;70688;52.492;13.420;2023-09-12T08:10:52;43.10;16.70
81216;DHT22;70688;52.492;13.420;2023-09-12T08:13:17;43.40;16.20
81216;DHT22;70688;52.492;13.420;2023-09-12T08:15:43;43.40;16.00
81216;DHT22;70688;52.492;13.420;2023-09-12T08:18:09;42.80;16.30
81216;DHT22;70688;52.492;13.420;2023-09-12T08:20:35;43.20;16.40
81216;DHT22;70688;52.492;13.420;2023-09-12T08:23:00;42.90;16.30
81216;DHT22;70688;52.492;13.420;2023-09-12T08:25:26;43.40;16.10
81216;DHT22;70688;52.492;13.420;2023-09-12T08:27:52;43.40;16.00
81216;DHT22;70688;52.492;13.420;2023-09-12T08:30:17;43.20;16.10
81216;DHT22;70688;52.492;13.420;2023-09-12T08:32:43;43.10;16.20
81216;DHT22;70688;52.492;13.420;2023-09-12T08:35:12;42.90;16.10
81216;DHT22;70688;52.492;13.420;2023-09-12T08:37:39;43.10;15.80
81216;DHT22;70688;52.492;13.420;2023-09-12T08:40:05;42.60;16.40
81216;DHT22;70688;52.492;13.420;2023-09-12T08:42:32;42.10;16.60
81216;DHT22;70688;52.492;13.420;2023-09-12T08:45:03;42.30;16.70
81216;DHT22;70688;52.492;13.420;2023-09-12T08:47:29;42.60;16.60
81216;DHT22;70688;52.492;13.420;2023-09-12T08:49:56;43.00;16.30
81216;DHT22;70688;52.492;13.420;2023-09-12T08:52:22;43.20;16.00
81216;DHT22;70688;52.492;13.420;2023-09-12T08:54:47;43.40;16.00
81216;DHT22;70688;52.492;13.420;2023-09-12T08:57:13;43.20;15.90
81216;DHT22;70688;52.492;13.420;2023-09-12T08:59:38;43.10;16.10
81216;DHT22;70688;52.492;13.420;2023-09-12T09:02:05;43.10;16.00
81216;DHT22;70688;52.492;13.420;2023-09-12T09:04:32;42.90;16.10
81216;DHT22;70688;52.492;13.420;2023-09-12T09:06:58;42.30;16.50
81216;DHT22;70688;52.492;13.420;2023-09-12T09:09:24;42.40;16.50
81216;DHT22;70688;52.492;13.420;2023-09-12T09:11:51;42.50;16.30
81216;DHT22;70688;52.492;13.420;2023-09-12T09:14:16;42.60;16.50
81216;DHT22;70688;52.492;13.420;2023-09-12T09:16:41;42.50;16.40
81216;DHT22;70688;52.492;13.420;2023-09-12T09:19:07;41.90;16.80
81216;DHT22;70688;52.492;13.420;2023-09-12T09:21:36;41.70;17.30
81216;DHT22;70688;52.492;13.420;2023-09-12T09:24:04;41.50;17.50
81216;DHT22;70688;52.492;13.420;2023-09-12T09:26:45;41.30;17.90
81216;DHT22;70688;52.492;13.420;2023-09-12T09:29:15;40.10;19.00
81216;DHT22;70688;52.492;13.420;2023-09-12T09:31:41;38.40;20.60
81216;DHT22;70688;52.492;13.420;2023-09-12T09:34:11;36.80;22.50
81216;DHT22;70688;52.492;13.420;2023-09-12T09:36:40;35.60;23.90
81216;DHT22;70688;52.492;13.420;2023-09-12T09:39:06;34.80;25.20
81216;DHT22;70688;52.492;13.420;2023-09-12T09:41:31;34.00;26.90
81216;DHT22;70688;52.492;13.420;2023-09-12T09:43:58;33.30;27.50
81216;DHT22;70688;52.492;13.420;2023-09-12T09:46:25;32.90;28.10
81216;DHT22;70688;52.492;13.420;2023-09-12T09:48:50;32.70;28.90
81216;DHT22;70688;52.492;13.420;2023-09-12T09:51:16;32.40;29.50
81216;DHT22;70688;52.492;13.420;2023-09-12T09:53:42;31.50;31.10
81216;DHT22;70688;52.492;13.420;2023-09-12T09:58:55;31.50;31.60
81216;DHT22;70688;52.492;13.420;2023-09-12T10:01:28;31.50;31.70
81216;DHT22;70688;52.492;13.420;2023-09-12T10:03:57;31.50;31.80
81216;DHT22;70688;52.492;13.420;2023-09-12T10:06:23;31.60;31.80
81216;DHT22;70688;52.492;13.420;2023-09-12T10:08:50;31.60;31.80
81216;DHT22;70688;52.492;13.420;2023-09-12T10:11:17;31.60;32.00
81216;DHT22;70688;52.492;13.420;2023-09-12T10:13:46;31.50;32.10
81216;DHT22;70688;52.492;13.420;2023-09-12T10:16:15;31.20;32.60
81216;DHT22;70688;52.492;13.420;2023-09-12T10:18:42;31.20;33.00
81216;DHT22;70688;52.492;13.420;2023-09-12T10:21:11;31.00;33.40
81216;DHT22;70688;52.492;13.420;2023-09-12T10:23:38;31.00;33.30
81216;DHT22;70688;52.492;13.420;2023-09-12T10:26:09;30.40;34.90
81216;DHT22;70688;52.492;13.420;2023-09-12T10:28:34;30.20;35.10
81216;DHT22;70688;52.492;13.420;2023-09-12T10:31:00;30.30;35.40
81216;DHT22;70688;52.492;13.420;2023-09-12T10:33:27;30.30;35.30
81216;DHT22;70688;52.492;13.420;2023-09-12T10:35:57;30.00;35.80
81216;DHT22;70688;52.492;13.420;2023-09-12T10:38:23;30.00;35.70
81216;DHT22;70688;52.492;13.420;2023-09-12T10:40:51;30.00;35.70
81216;DHT22;70688;52.492;13.420;2023-09-12T10:43:21;30.10;35.40
81216;DHT22;70688;52.492;13.420;2023-09-12T10:45:48;30.50;35.00
81216;DHT22;70688;52.492;13.420;2023-09-12T10:48:14;30.40;34.80
81216;DHT22;70688;52.492;13.420;2023-09-12T10:50:40;30.60;34.10
81216;DHT22;70688;52.492;13.420;2023-09-12T10:53:12;30.40;33.90
81216;DHT22;70688;52.492;13.420;2023-09-12T10:55:39;30.20;34.10
81216;DHT22;70688;52.492;13.420;2023-09-12T10:58:08;30.30;34.10
81216;DHT22;70688;52.492;13.420;2023-09-12T11:00:35;30.50;33.80
81216;DHT22;70688;52.492;13.420;2023-09-12T11:05:57;30.80;33.20
81216;DHT22;70688;52.492;13.420;2023-09-12T11:08:22;30.80;33.00
81216;DHT22;70688;52.492;13.420;2023-09-12T11:13:42;30.20;34.40
81216;DHT22;70688;52.492;13.420;2023-09-12T11:16:12;30.20;34.50
81216;DHT22;70688;52.492;13.420;2023-09-12T11:19:11;30.20;34.50
81216;DHT22;70688;52.492;13.420;2023-09-12T11:21:32;30.40;34.70
81216;DHT22;70688;52.492;13.420;2023-09-12T11:23:58;30.60;34.10
81216;DHT22;70688;52.492;13.420;2023-09-12T11:26:24;30.50;34.60
81216;DHT22;70688;52.492;13.420;2023-09-12T11:28:49;30.50;34.80
81216;DHT22;70688;52.492;13.420;2023-09-12T11:31:28;30.60;34.70
81216;DHT22;70688;52.492;13.420;2023-09-12T11:33:53;30.60;34.70
81216;DHT22;70688;52.492;13.420;2023-09-12T11:36:19;30.60;34.80
81216;DHT22;70688;52.492;13.420;2023-09-12T11:38:48;30.40;34.80
81216;DHT22;70688;52.492;13.420;2023-09-12T11:41:14;30.30;35.30
81216;DHT22;70688;52.492;13.420;2023-09-12T11:44:02;30.30;35.70
81216;DHT22;70688;52.492;13.420;2023-09-12T11:46:28;30.10;35.80
81216;DHT22;70688;52.492;13.420;2023-09-12T11:48:54;30.10;35.80
81216;DHT22;70688;52.492;13.420;2023-09-12T11:51:21;30.20;35.80
81216;DHT22;70688;52.492;13.420;2023-09-12T11:53:52;30.60;35.10
81216;DHT22;70688;52.492;13.420;2023-09-12T11:56:18;30.60;34.70
81216;DHT22;70688;52.492;13.420;2023-09-12T11:58:44;30.70;34.60
81216;DHT22;70688;52.492;13.420;2023-09-12T12:01:11;30.60;34.60
81216;DHT22;70688;52.492;13.420;2023-09-12T12:03:37;30.50;35.00
81216;DHT22;70688;52.492;13.420;2023-09-12T12:06:02;30.50;34.80
81216;DHT22;70688;52.492;13.420;2023-09-12T12:08:30;30.40;34.90
81216;DHT22;70688;52.492;13.420;2023-09-12T12:10:56;30.30;35.40
81216;DHT22;70688;52.492;13.420;2023-09-12T12:13:23;29.90;36.20
81216;DHT22;70688;52.492;13.420;2023-09-12T12:15:49;29.80;35.90
81216;DHT22;70688;52.492;13.420;2023-09-12T12:18:15;29.90;36.00
81216;DHT22;70688;52.492;13.420;2023-09-12T12:20:41;30.00;36.00
81216;DHT22;70688;52.492;13.420;2023-09-12T12:23:06;30.20;35.40
81216;DHT22;70688;52.492;13.420;2023-09-12T12:25:35;30.20;35.80
81216;DHT22;70688;52.492;13.420;2023-09-12T12:28:04;30.30;35.40
81216;DHT22;70688;52.492;13.420;2023-09-12T12:30:33;30.30;34.90
81216;DHT22;70688;52.492;13.420;2023-09-12T12:33:00;30.30;35.10
81216;DHT22;70688;52.492;13.420;2023-09-12T12:35:26;30.40;34.80
81216;DHT22;70688;52.492;13.420;2023-09-12T12:37:53;30.10;35.40
81216;DHT22;70688;52.492;13.420;2023-09-12T12:40:19;29.80;35.90
81216;DHT22;70688;52.492;13.420;2023-09-12T12:42:47;29.70;36.50
81216;DHT22;70688;52.492;13.420;2023-09-12T12:45:13;29.80;35.90
81216;DHT22;70688;52.492;13.420;2023-09-12T12:47:39;29.80;35.90
81216;DHT22;70688;52.492;13.420;2023-09-12T12:50:11;29.90;35.20
81216;DHT22;70688;52.492;13.420;2023-09-12T12:52:37;30.00;35.50
81216;DHT22;70688;52.492;13.420;2023-09-12T12:55:11;30.10;35.10
81216;DHT22;70688;52.492;13.420;2023-09-12T12:57:40;30.00;35.10
81216;DHT22;70688;52.492;13.420;2023-09-12T13:00:09;30.10;34.50
81216;DHT22;70688;52.492;13.420;2023-09-12T13:02:36;30.20;34.40
81216;DHT22;70688;52.492;13.420;2023-09-12T13:05:02;30.20;35.10
81216;DHT22;70688;52.492;13.420;2023-09-12T13:07:27;30.10;35.10
81216;DHT22;70688;52.492;13.420;2023-09-12T13:09:53;30.10;35.10
81216;DHT22;70688;52.492;13.420;2023-09-12T13:12:19;30.30;34.70
81216;DHT22;70688;52.492;13.420;2023-09-12T13:14:44;30.40;34.00
81216;DHT22;70688;52.492;13.420;2023-09-12T13:17:10;30.40;33.80
81216;DHT22;70688;52.492;13.420;2023-09-12T13:19:35;30.20;34.00
81216;DHT22;70688;52.492;13.420;2023-09-12T13:22:01;30.10;34.00
81216;DHT22;70688;52.492;13.420;2023-09-12T13:24:26;30.10;34.70
81216;DHT22;70688;52.492;13.420;2023-09-12T13:26:52;30.20;34.60
81216;DHT22;70688;52.492;13.420;2023-09-12T13:29:19;30.20;34.50
81216;DHT22;70688;52.492;13.420;2023-09-12T13:31:44;30.40;33.50
81216;DHT22;70688;52.492;13.420;2023-09-12T13:34:10;30.60;33.40
81216;DHT22;70688;52.492;13.420;2023-09-12T13:36:36;30.60;32.90
81216;DHT22;70688;52.492;13.420;2023-09-12T13:39:01;30.50;33.50
81216;DHT22;70688;52.492;13.420;2023-09-12T13:41:28;30.40;33.00
81216;DHT22;70688;52.492;13.420;2023-09-12T13:43:53;30.60;31.90
81216;DHT22;70688;52.492;13.420;2023-09-12T13:46:19;30.60;32.40
81216;DHT22;70688;52.492;13.420;2023-09-12T13:48:44;30.30;32.50
81216;DHT22;70688;52.492;13.420;2023-09-12T13:51:09;30.40;32.90
81216;DHT22;70688;52.492;13.420;2023-09-12T13:53:35;30.70;32.30
81216;DHT22;70688;52.492;13.420;2023-09-12T13:56:00;30.50;33.30
81216;DHT22;70688;52.492;13.420;2023-09-12T13:58:27;30.40;33.40
81216;DHT22;70688;52.492;13.420;2023-09-12T14:00:52;30.50;33.10
81216;DHT22;70688;52.492;13.420;2023-09-12T14:03:18;30.40;33.20
81216;DHT22;70688;52.492;13.420;2023-09-12T14:05:43;30.20;33.80
81216;DHT22;70688;52.492;13.420;2023-09-12T14:08:09;30.20;34.10
81216;DHT22;70688;52.492;13.420;2023-09-12T14:10:35;30.00;34.80
81216;DHT22;70688;52.492;13.420;2023-09-12T14:13:00;30.10;33.90
81216;DHT22;70688;52.492;13.420;2023-09-12T14:15:26;30.00;33.90
81216;DHT22;70688;52.492;13.420;2023-09-12T14:17:51;29.90;33.70
81216;DHT22;70688;52.492;13.420;2023-09-12T14:20:17;29.90;33.80
81216;DHT22;70688;52.492;13.420;2023-09-12T14:22:43;30.00;34.00
81216;DHT22;70688;52.492;13.420;2023-09-12T14:25:09;30.00;34.60
81216;DHT22;70688;52.492;13.420;2023-09-12T14:27:42;30.00;34.30
81216;DHT22;70688;52.492;13.420;2023-09-12T14:30:09;29.80;34.60
81216;DHT22;70688;52.492;13.420;2023-09-12T14:32:34;29.80;34.80
81216;DHT22;70688;52.492;13.420;2023-09-12T14:35:00;29.90;34.50
81216;DHT22;70688;52.492;13.420;2023-09-12T14:37:25;29.90;34.30
81216;DHT22;70688;52.492;13.420;2023-09-12T14:39:55;30.10;34.10
81216;DHT22;70688;52.492;13.420;2023-09-12T14:42:21;30.10;34.20
81216;DHT22;70688;52.492;13.420;2023-09-12T14:44:47;30.10;34.20
81216;DHT22;70688;52.492;13.420;2023-09-12T14:47:12;30.20;34.00
81216;DHT22;70688;52.492;13.420;2023-09-12T14:49:38;30.30;33.70
81216;DHT22;70688;52.492;13.420;2023-09-12T14:52:03;30.20;34.10
81216;DHT22;70688;52.492;13.420;2023-09-12T14:54:29;30.10;34.50
81216;DHT22;70688;52.492;13.420;2023-09-12T14:56:54;30.00;34.90
81216;DHT22;70688;52.492;13.420;2023-09-12T14:59:20;29.90;36.70
81216;DHT22;70688;52.492;13.420;2023-09-12T15:01:46;29.70;37.80
81216;DHT22;70688;52.492;13.420;2023-09-12T15:04:12;29.20;38.70
81216;DHT22;70688;52.492;13.420;2023-09-12T15:06:38;28.90;39.20
81216;DHT22;70688;52.492;13.420;2023-09-12T15:09:03;28.80;39.00
81216;DHT22;70688;52.492;13.420;2023-09-12T15:11:29;28.60;39.40
81216;DHT22;70688;52.492;13.420;2023-09-12T15:13:56;28.50;39.30
81216;DHT22;70688;52.492;13.420;2023-09-12T15:16:22;28.50;39.50
81216;DHT22;70688;52.492;13.420;2023-09-12T15:18:47;28.40;40.10
81216;DHT22;70688;52.492;13.420;2023-09-12T15:21:13;28.10;40.70
81216;DHT22;70688;52.492;13.420;2023-09-12T15:23:38;28.10;40.80
81216;DHT22;70688;52.492;13.420;2023-09-12T15:26:04;28.10;40.70
81216;DHT22;70688;52.492;13.420;2023-09-12T15:28:29;28.10;40.90